createdAt,value
2018-07-22T00:01:48.018Z,99414.56
2018-07-22T00:04:18.802Z,99420.80
2018-07-22T00:06:49.736Z,99415.88
2018-07-22T00:09:20.454Z,99417.08
2018-07-22T00:11:51.203Z,99415.85
2018-07-22T00:14:21.989Z,99406.20
2018-07-22T00:16:52.661Z,99406.19
2018-07-22T00:19:23.165Z,99410.88
2018-07-22T00:21:53.874Z,99414.01
2018-07-22T00:24:24.509Z,99422.52
2018-07-22T00:26:55.348Z,99425.02
2018-07-22T00:29:26.052Z,99425.68
2018-07-22T00:31:56.928Z,99425.71
2018-07-22T00:34:27.473Z,99425.69
2018-07-22T00:36:58.176Z,99423.63
2018-07-22T00:39:28.869Z,99424.91
2018-07-22T00:41:59.508Z,99423.89
2018-07-22T00:44:29.957Z,99427.53
2018-07-22T00:47:00.663Z,99424.72
2018-07-22T00:49:31.337Z,99422.12
2018-07-22T00:52:02.229Z,99417.58
2018-07-22T00:54:32.852Z,99408.23
2018-07-22T00:57:03.783Z,99410.88
2018-07-22T00:59:35.355Z,99417.65
2018-07-22T01:02:06.121Z,99409.86
2018-07-22T01:04:36.811Z,99412.23
2018-07-22T01:07:07.697Z,99406.20
2018-07-22T01:09:38.473Z,99405.70
2018-07-22T01:12:09.245Z,99411.41
2018-07-22T01:14:39.944Z,99411.95
2018-07-22T01:17:10.873Z,99411.56
2018-07-22T01:19:41.460Z,99414.02
2018-07-22T01:22:12.333Z,99414.48
2018-07-22T01:24:42.999Z,99420.55
2018-07-22T01:27:13.661Z,99423.41
2018-07-22T01:29:44.351Z,99426.78
2018-07-22T01:32:15.167Z,99423.66
2018-07-22T01:34:46.185Z,99415.50
2018-07-22T01:37:17.652Z,99410.48
2018-07-22T01:39:48.316Z,99409.44
2018-07-22T01:42:18.892Z,99413.37
2018-07-22T01:44:49.631Z,99413.38
2018-07-22T01:47:20.732Z,99407.70
2018-07-22T01:49:51.300Z,99403.76
2018-07-22T01:52:22.018Z,99403.97
2018-07-22T01:54:52.541Z,99403.23
2018-07-22T01:57:23.274Z,99400.34
2018-07-22T01:59:53.981Z,99397.14
2018-07-22T02:02:24.925Z,99397.83
2018-07-22T02:04:55.647Z,99395.50
2018-07-22T02:07:26.417Z,99398.45
2018-07-22T02:09:56.517Z,99398.59
2018-07-22T02:12:27.208Z,99396.30
2018-07-22T02:14:58.609Z,99394.18
2018-07-22T02:17:29.390Z,99392.22
2018-07-22T02:19:59.997Z,99386.80
2018-07-22T02:22:30.643Z,99395.14
2018-07-22T02:25:01.403Z,99395.14
2018-07-22T02:27:32.196Z,99393.75
2018-07-22T02:30:03.034Z,99389.71
2018-07-22T02:32:33.791Z,99390.41
2018-07-22T02:35:04.534Z,99387.68
2018-07-22T02:37:36.137Z,99381.88
2018-07-22T02:40:06.801Z,99393.61
2018-07-22T02:42:37.462Z,99393.61
2018-07-22T02:45:08.009Z,99396.87
2018-07-22T02:47:38.769Z,99399.17
2018-07-22T02:50:09.336Z,99400.63
2018-07-22T02:52:40.172Z,99398.86
2018-07-22T02:55:10.764Z,99401.78
2018-07-22T02:57:41.841Z,99401.46
2018-07-22T03:00:12.539Z,99402.29
2018-07-22T03:02:43.378Z,99403.89
2018-07-22T03:05:14.073Z,99400.69
2018-07-22T03:07:45.204Z,99405.17
2018-07-22T03:10:15.995Z,99399.47
2018-07-22T03:12:46.883Z,99403.30
2018-07-22T03:15:17.713Z,99398.95
2018-07-22T03:17:48.896Z,99398.24
2018-07-22T03:20:19.646Z,99396.49
2018-07-22T03:22:50.388Z,99406.06
2018-07-22T03:25:20.621Z,99398.58
2018-07-22T03:27:51.324Z,99402.56
2018-07-22T03:30:21.984Z,99393.05
2018-07-22T03:32:52.877Z,99396.84
2018-07-22T03:35:23.528Z,99395.90
2018-07-22T03:37:54.262Z,99401.69
2018-07-22T03:40:24.896Z,99401.98
2018-07-22T03:42:55.689Z,99405.45
2018-07-22T03:45:26.337Z,99404.46
2018-07-22T03:47:57.109Z,99400.03
2018-07-22T03:50:28.796Z,99399.50
2018-07-22T03:52:59.760Z,99406.59
2018-07-22T03:55:31.908Z,99410.43
2018-07-22T03:58:02.537Z,99406.91
2018-07-22T04:00:33.242Z,99410.52
2018-07-22T04:03:04.162Z,99412.27
2018-07-22T04:05:34.840Z,99413.77
2018-07-22T04:08:05.783Z,99408.66
2018-07-22T04:10:36.406Z,99410.94
2018-07-22T04:13:07.293Z,99411.98
2018-07-22T04:15:38.049Z,99412.58
2018-07-22T04:18:08.811Z,99408.12
2018-07-22T04:20:39.484Z,99409.31
2018-07-22T04:23:11.518Z,99403.73
2018-07-22T04:25:42.005Z,99404.81
2018-07-22T04:28:12.244Z,99408.19
2018-07-22T04:30:42.836Z,99410.27
2018-07-22T04:33:13.717Z,99411.86
2018-07-22T04:35:44.496Z,99413.16
2018-07-22T04:38:15.216Z,99412.37
2018-07-22T04:40:45.710Z,99415.50
2018-07-22T04:43:16.348Z,99416.63
2018-07-22T04:45:47.030Z,99415.09
2018-07-22T04:48:17.905Z,99411.45
2018-07-22T04:50:48.517Z,99406.73
2018-07-22T04:53:19.500Z,99406.73
2018-07-22T04:55:50.120Z,99404.59
2018-07-22T04:58:20.846Z,99410.05
2018-07-22T05:00:51.496Z,99413.16
2018-07-22T05:03:22.234Z,99417.62
2018-07-22T05:05:53.014Z,99425.53
2018-07-22T05:08:23.728Z,99423.03
2018-07-22T05:10:54.209Z,99425.98
2018-07-22T05:13:24.829Z,99418.77
2018-07-22T05:15:55.475Z,99412.37
2018-07-22T05:18:26.341Z,99411.83
2018-07-22T05:20:56.996Z,99404.11
2018-07-22T05:23:27.640Z,99402.01
2018-07-22T05:25:58.317Z,99404.39
2018-07-22T05:28:29.318Z,99405.84
2018-07-22T05:30:59.873Z,99406.92
2018-07-22T05:33:30.513Z,99403.23
2018-07-22T05:36:01.159Z,99409.94
2018-07-22T05:38:31.567Z,99409.01
2018-07-22T05:41:02.213Z,99404.45
2018-07-22T05:43:33.024Z,99407.55
2018-07-22T05:46:04.509Z,99402.00
2018-07-22T05:48:35.541Z,99399.11
2018-07-22T05:51:06.924Z,99392.39
2018-07-22T05:53:37.920Z,99395.80
2018-07-22T05:56:08.493Z,99402.41
2018-07-22T05:58:39.241Z,99402.16
2018-07-22T06:01:09.860Z,99399.95
2018-07-22T06:03:40.620Z,99395.67
2018-07-22T06:06:11.352Z,99396.84
2018-07-22T06:08:42.265Z,99395.26
2018-07-22T06:11:12.849Z,99395.97
2018-07-22T06:13:43.538Z,99394.53
2018-07-22T06:16:14.269Z,99397.13
2018-07-22T06:18:45.308Z,99391.75
2018-07-22T06:21:15.984Z,99393.41
2018-07-22T06:23:46.607Z,99384.61
2018-07-22T06:26:17.566Z,99389.25
2018-07-22T06:28:48.545Z,99382.25
2018-07-22T06:31:19.161Z,99380.95
2018-07-22T06:33:49.913Z,99380.60
2018-07-22T06:36:20.044Z,99374.55
2018-07-22T06:38:50.926Z,99368.95
2018-07-22T06:41:21.665Z,99368.95
2018-07-22T06:43:52.696Z,99375.09
2018-07-22T06:46:23.267Z,99369.64
2018-07-22T06:48:53.932Z,99369.57
2018-07-22T06:51:24.745Z,99369.80
2018-07-22T06:53:55.393Z,99363.36
2018-07-22T06:56:25.973Z,99365.95
2018-07-22T06:58:57.341Z,99364.88
2018-07-22T07:01:27.933Z,99372.53
2018-07-22T07:03:58.905Z,99369.63
2018-07-22T07:06:29.789Z,99366.07
2018-07-22T07:09:00.845Z,99361.20
2018-07-22T07:11:31.542Z,99360.95
2018-07-22T07:14:02.433Z,99356.45
2018-07-22T07:16:33.000Z,99364.38
2018-07-22T07:19:03.801Z,99372.16
2018-07-22T07:21:34.421Z,99368.63
2018-07-22T07:24:05.041Z,99358.58
2018-07-22T07:26:35.738Z,99355.75
2018-07-22T07:29:06.312Z,99352.36
2018-07-22T07:31:37.204Z,99345.28
2018-07-22T07:34:08.588Z,99345.71
2018-07-22T07:36:39.247Z,99341.95
2018-07-22T07:39:12.867Z,99342.72
2018-07-22T07:41:43.466Z,99340.84
2018-07-22T07:44:14.229Z,99339.28
2018-07-22T07:46:44.941Z,99332.30
2018-07-22T07:49:15.823Z,99323.33
2018-07-22T07:51:47.433Z,99329.44
2018-07-22T07:54:18.369Z,99324.35
2018-07-22T07:56:49.051Z,99322.11
2018-07-22T07:59:20.105Z,99325.49
2018-07-22T08:01:50.752Z,99320.34
2018-07-22T08:04:21.685Z,99310.88
2018-07-22T08:06:52.584Z,99308.74
2018-07-22T08:09:23.872Z,99315.42
2018-07-22T08:11:55.072Z,99309.34
2018-07-22T08:14:26.718Z,99306.46
2018-07-22T08:16:56.941Z,99304.20
2018-07-22T08:19:27.643Z,99298.39
2018-07-22T08:21:58.328Z,99305.23
2018-07-22T08:24:29.166Z,99300.44
2018-07-22T08:26:59.942Z,99299.31
2018-07-22T08:29:31.628Z,99298.21
2018-07-22T08:32:03.157Z,99298.84
2018-07-22T08:34:33.718Z,99300.28
2018-07-22T08:37:04.352Z,99296.14
2018-07-22T08:39:35.043Z,99295.11
2018-07-22T08:42:05.714Z,99284.66
2018-07-22T08:44:36.502Z,99279.83
2018-07-22T08:47:07.239Z,99277.57
2018-07-22T08:49:38.100Z,99274.31
2018-07-22T08:52:09.155Z,99273.48
2018-07-22T08:54:39.926Z,99268.31
2018-07-22T08:57:10.557Z,99256.16
2018-07-22T08:59:41.313Z,99251.09
2018-07-22T09:02:11.967Z,99254.05
2018-07-22T09:04:42.770Z,99248.14
2018-07-22T09:07:13.503Z,99243.84
2018-07-22T09:09:44.457Z,99236.77
2018-07-22T09:12:15.053Z,99237.73
2018-07-22T09:14:45.989Z,99235.20
2018-07-22T09:17:16.754Z,99228.17
2018-07-22T09:19:47.598Z,99232.45
2018-07-22T09:22:18.278Z,99231.50
2018-07-22T09:24:50.012Z,99221.74
2018-07-22T09:27:20.432Z,99211.60
2018-07-22T09:29:51.295Z,99201.45
2018-07-22T09:32:21.949Z,99201.34
2018-07-22T09:34:52.757Z,99198.33
2018-07-22T09:37:23.487Z,99188.78
2018-07-22T09:39:54.314Z,99188.03
2018-07-22T09:42:24.928Z,99181.68
2018-07-22T09:44:55.386Z,99174.75
2018-07-22T09:47:26.122Z,99173.95
2018-07-22T09:49:57.053Z,99162.72
2018-07-22T09:52:27.876Z,99166.42
2018-07-22T09:54:58.520Z,99157.02
2018-07-22T09:57:29.093Z,99147.98
2018-07-22T09:59:59.861Z,99147.69
2018-07-22T10:02:30.511Z,99147.77
2018-07-22T10:05:02.115Z,99139.44
2018-07-22T10:07:32.909Z,99136.81
2018-07-22T10:10:03.822Z,99142.48
2018-07-22T10:12:35.509Z,99144.62
2018-07-22T10:15:06.308Z,99138.17
2018-07-22T10:17:38.783Z,99135.13
2018-07-22T10:20:09.629Z,99125.95
2018-07-22T10:22:40.210Z,99131.87
2018-07-22T10:25:11.302Z,99131.60
2018-07-22T10:27:42.282Z,99123.16
2018-07-22T10:30:13.191Z,99116.70
2018-07-22T10:32:43.801Z,99111.54
2018-07-22T10:35:14.677Z,99114.38
2018-07-22T10:37:45.220Z,99109.39
2018-07-22T10:40:16.418Z,99107.79
2018-07-22T10:42:47.239Z,99098.88
2018-07-22T10:45:18.182Z,99095.45
2018-07-22T10:47:48.880Z,99089.17
2018-07-22T10:50:19.864Z,99084.17
2018-07-22T10:52:50.441Z,99083.82
2018-07-22T10:55:21.257Z,99073.44
2018-07-22T10:57:51.888Z,99069.91
2018-07-22T11:00:22.997Z,99071.46
2018-07-22T11:02:53.624Z,99063.13
2018-07-22T11:05:24.325Z,99056.48
2018-07-22T11:07:54.992Z,99059.77
2018-07-22T11:10:25.868Z,99046.09
2018-07-22T11:12:56.874Z,99044.20
2018-07-22T11:15:27.693Z,99043.73
2018-07-22T11:17:58.333Z,99040.75
2018-07-22T11:20:29.101Z,99038.00
2018-07-22T11:22:59.713Z,99034.67
2018-07-22T11:25:30.460Z,99037.56
2018-07-22T11:28:00.973Z,99025.17
2018-07-22T11:30:31.638Z,99028.95
2018-07-22T11:33:02.253Z,99022.03
2018-07-22T11:35:33.350Z,99020.13
2018-07-22T11:38:03.905Z,99021.61
2018-07-22T11:40:34.645Z,99019.16
2018-07-22T11:43:05.268Z,99012.63
2018-07-22T11:45:36.019Z,99005.12
2018-07-22T11:48:06.613Z,99004.30
2018-07-22T11:50:37.606Z,99006.09
2018-07-22T11:53:08.282Z,98995.96
2018-07-22T11:55:38.928Z,98991.58
2018-07-22T11:58:09.584Z,98988.61
2018-07-22T12:00:40.437Z,98984.38
2018-07-22T12:03:11.106Z,98985.11
2018-07-22T12:05:41.927Z,98982.28
2018-07-22T12:08:12.592Z,98980.11
2018-07-22T12:10:43.490Z,98978.46
2018-07-22T12:13:14.269Z,98967.65
2018-07-22T12:15:45.030Z,98971.29
2018-07-22T12:18:22.482Z,98969.33
2018-07-22T12:20:53.260Z,98959.59
2018-07-22T12:23:23.876Z,98959.72
2018-07-22T12:25:54.604Z,98959.70
2018-07-22T12:28:25.225Z,98951.52
2018-07-22T12:30:55.928Z,98950.73
2018-07-22T12:33:26.649Z,98950.34
2018-07-22T12:35:57.421Z,98951.98
2018-07-22T12:38:28.121Z,98944.27
2018-07-22T12:40:58.529Z,98937.20
2018-07-22T12:43:29.366Z,98926.22
2018-07-22T12:46:00.417Z,98926.05
2018-07-22T12:48:30.957Z,98926.84
2018-07-22T12:51:01.745Z,98920.23
2018-07-22T12:53:32.437Z,98920.84
2018-07-22T12:56:02.572Z,98916.14
2018-07-22T12:58:33.381Z,98912.72
2018-07-22T13:01:04.077Z,98911.27
2018-07-22T13:03:35.115Z,98905.78
2018-07-22T13:06:05.736Z,98910.16
2018-07-22T13:08:36.318Z,98910.36
2018-07-22T13:11:06.449Z,98898.09
2018-07-22T13:13:37.353Z,98902.81
2018-07-22T13:16:08.274Z,98902.39
2018-07-22T13:18:38.974Z,98896.35
2018-07-22T13:21:09.701Z,98893.30
2018-07-22T13:23:40.388Z,98888.03
2018-07-22T13:26:11.149Z,98873.72
2018-07-22T13:28:41.976Z,98866.10
2018-07-22T13:31:12.628Z,98863.31
2018-07-22T13:33:43.300Z,98861.20
2018-07-22T13:36:13.984Z,98868.05
2018-07-22T13:38:44.522Z,98855.38
2018-07-22T13:41:15.148Z,98855.64
2018-07-22T13:43:45.977Z,98854.62
2018-07-22T13:46:16.785Z,98851.84
2018-07-22T13:48:47.518Z,98848.59
2018-07-22T13:51:18.073Z,98847.76
2018-07-22T13:53:48.472Z,98842.78
2018-07-22T13:56:19.254Z,98839.22
2018-07-22T13:58:50.022Z,98839.81
2018-07-22T14:01:20.840Z,98844.28
2018-07-22T14:03:51.714Z,98847.56
2018-07-22T14:06:22.278Z,98845.04
2018-07-22T14:08:53.061Z,98836.31
2018-07-22T14:11:23.862Z,98834.55
2018-07-22T14:13:54.853Z,98819.67
2018-07-22T14:16:25.576Z,98816.57
2018-07-22T14:18:56.332Z,98820.14
2018-07-22T14:21:26.943Z,98819.75
2018-07-22T14:23:57.891Z,98829.70
2018-07-22T14:26:28.561Z,98829.52
2018-07-22T14:28:59.341Z,98821.31
2018-07-22T14:31:29.926Z,98815.40
2018-07-22T14:34:00.805Z,98801.27
2018-07-22T14:36:31.509Z,98794.78
2018-07-22T14:39:02.461Z,98790.48
2018-07-22T14:41:33.130Z,98804.26
2018-07-22T14:44:03.933Z,98808.90
2018-07-22T14:46:34.454Z,98803.83
2018-07-22T14:49:05.331Z,98799.44
2018-07-22T14:51:35.913Z,98798.45
2018-07-22T14:54:07.222Z,98794.34
2018-07-22T14:56:37.983Z,98798.95
2018-07-22T14:59:08.705Z,98792.86
2018-07-22T15:01:39.208Z,98789.45
2018-07-22T15:04:10.349Z,98793.20
2018-07-22T15:06:41.053Z,98796.64
2018-07-22T15:09:11.832Z,98796.22
2018-07-22T15:11:42.496Z,98798.33
2018-07-22T15:14:13.185Z,98806.73
2018-07-22T15:16:43.858Z,98784.62
2018-07-22T15:19:14.573Z,98778.98
2018-07-22T15:21:45.257Z,98770.59
2018-07-22T15:24:16.021Z,98773.47
2018-07-22T15:26:46.672Z,98767.09
2018-07-22T15:29:17.486Z,98774.11
2018-07-22T15:31:48.095Z,98767.22
2018-07-22T15:34:18.827Z,98764.69
2018-07-22T15:36:49.451Z,98764.06
2018-07-22T15:39:20.289Z,98753.16
2018-07-22T15:41:50.948Z,98757.58
2018-07-22T15:44:21.736Z,98753.79
2018-07-22T15:46:52.336Z,98757.37
2018-07-22T15:49:23.202Z,98747.30
2018-07-22T15:51:53.866Z,98757.00
2018-07-22T15:54:24.653Z,98748.48
2018-07-22T15:56:55.268Z,98742.84
2018-07-22T15:59:25.880Z,98749.09
2018-07-22T16:01:56.200Z,98765.05
2018-07-22T16:04:27.073Z,98788.90
2018-07-22T16:06:57.799Z,98792.50
2018-07-22T16:09:28.460Z,98790.73
2018-07-22T16:11:59.054Z,98780.96
2018-07-22T16:14:29.909Z,98779.34
2018-07-22T16:17:00.617Z,98778.77
2018-07-22T16:19:31.581Z,98773.17
2018-07-22T16:22:02.245Z,98772.81
2018-07-22T16:24:33.072Z,98781.17
2018-07-22T16:27:03.918Z,98785.19
2018-07-22T16:29:34.799Z,98777.23
2018-07-22T16:32:05.482Z,98774.38
2018-07-22T16:34:36.279Z,98773.77
2018-07-22T16:37:06.937Z,98777.85
2018-07-22T16:39:37.945Z,98780.23
2018-07-22T16:42:08.663Z,98790.41
2018-07-22T16:44:39.513Z,98791.83
2018-07-22T16:47:10.113Z,98808.53
2018-07-22T16:49:40.916Z,98813.48
2018-07-22T16:52:11.532Z,98826.09
2018-07-22T16:54:42.429Z,98844.46
2018-07-22T16:57:13.119Z,98864.34
2018-07-22T16:59:44.049Z,98875.63
2018-07-22T17:02:14.686Z,98884.27
2018-07-22T17:04:45.634Z,98879.83
2018-07-22T17:07:16.199Z,98907.92
2018-07-22T17:09:46.889Z,98919.39
2018-07-22T17:12:17.468Z,98934.30
2018-07-22T17:14:48.153Z,98927.16
2018-07-22T17:17:18.801Z,98937.81
2018-07-22T17:19:49.623Z,98943.09
2018-07-22T17:22:20.256Z,98954.69
2018-07-22T17:24:51.041Z,98960.88
2018-07-22T17:27:21.493Z,98968.15
2018-07-22T17:29:52.288Z,98967.33
2018-07-22T17:32:23.025Z,98980.14
2018-07-22T17:34:54.079Z,98981.34
2018-07-22T17:37:24.746Z,98968.88
2018-07-22T17:39:59.568Z,98968.59
2018-07-22T17:42:32.317Z,98976.90
2018-07-22T17:45:03.280Z,98982.31
2018-07-22T17:47:33.888Z,98990.89
2018-07-22T17:50:04.773Z,98998.98
2018-07-22T17:52:35.411Z,98995.09
2018-07-22T17:55:06.188Z,98990.84
2018-07-22T17:57:36.927Z,98985.28
2018-07-22T18:00:08.004Z,98986.57
2018-07-22T18:02:40.687Z,98986.37
2018-07-22T18:05:11.509Z,99011.27
2018-07-22T18:07:42.157Z,99020.70
2018-07-22T18:10:12.813Z,99012.56
2018-07-22T18:12:43.380Z,99013.73
2018-07-22T18:15:14.104Z,99014.89
2018-07-22T18:17:44.764Z,99012.33
2018-07-22T18:20:15.557Z,99014.91
2018-07-22T18:22:46.259Z,99020.34
2018-07-22T18:25:16.988Z,99018.02
2018-07-22T18:27:47.561Z,99021.06
2018-07-22T18:30:18.481Z,99020.44
2018-07-22T18:32:49.173Z,99016.73
2018-07-22T18:35:20.041Z,99024.34
2018-07-22T18:37:50.589Z,99032.77
2018-07-22T18:40:21.449Z,99026.52
2018-07-22T18:42:51.861Z,99026.26
2018-07-22T18:45:22.784Z,99027.08
2018-07-22T18:47:53.792Z,99025.70
2018-07-22T18:50:24.629Z,99030.08
2018-07-22T18:52:55.142Z,99033.97
2018-07-22T18:55:26.260Z,99034.09
2018-07-22T18:57:56.553Z,99048.82
2018-07-22T19:00:26.933Z,99051.25
2018-07-22T19:02:57.189Z,99068.93
2018-07-22T19:05:27.663Z,99078.65
2018-07-22T19:07:57.941Z,99089.77
2018-07-22T19:10:28.245Z,99079.31
2018-07-22T19:12:58.479Z,99089.47
2018-07-22T19:15:28.736Z,99083.54
2018-07-22T19:17:59.081Z,99090.98
2018-07-22T19:20:29.475Z,99090.88
2018-07-22T19:23:00.265Z,99080.09
2018-07-22T19:25:30.580Z,99083.95
2018-07-22T19:28:00.832Z,99080.98
2018-07-22T19:30:31.139Z,99076.48
2018-07-22T19:33:01.682Z,99072.19
2018-07-22T19:35:32.034Z,99070.50
2018-07-22T19:38:02.392Z,99063.78
2018-07-22T19:40:32.621Z,99056.11
2018-07-22T19:43:02.865Z,99050.45
2018-07-22T19:45:33.536Z,99039.89
2018-07-22T19:48:03.872Z,99041.91
2018-07-22T19:50:34.589Z,99054.08
2018-07-22T19:53:04.845Z,99051.64
2018-07-22T19:55:35.140Z,99055.84
2018-07-22T19:58:05.633Z,99050.53
2018-07-22T20:00:36.558Z,99063.05
2018-07-22T20:03:07.390Z,99069.41
2018-07-22T20:05:38.050Z,99071.43
2018-07-22T20:08:08.357Z,99068.59
2018-07-22T20:10:38.669Z,99065.69
2018-07-22T20:13:08.956Z,99058.64
2018-07-22T20:15:39.922Z,99053.15
2018-07-22T20:18:10.609Z,99046.13
2018-07-22T20:20:41.489Z,99051.75
2018-07-22T20:23:11.810Z,99051.62
2018-07-22T20:25:42.111Z,99052.38
2018-07-22T20:28:12.689Z,99055.12
2018-07-22T20:30:42.533Z,99051.63
2018-07-22T20:33:13.344Z,99057.58
2018-07-22T20:35:57.755Z,99058.21
2018-07-22T20:38:28.549Z,99041.24
2018-07-22T20:40:59.233Z,99036.11
2018-07-22T20:43:30.965Z,99046.67
2018-07-22T20:46:01.246Z,99055.96
2018-07-22T20:48:32.168Z,99061.25
2018-07-22T20:51:02.905Z,99070.12
2018-07-22T20:53:33.645Z,99073.08
2018-07-22T20:56:04.280Z,99078.44
2018-07-22T20:58:34.429Z,99081.25
2018-07-22T21:01:05.106Z,99081.84
2018-07-22T21:03:35.500Z,99088.63
2018-07-22T21:06:06.062Z,99091.20
2018-07-22T21:08:36.830Z,99081.44
2018-07-22T21:11:07.539Z,99086.13
2018-07-22T21:13:38.210Z,99083.29
2018-07-22T21:16:08.741Z,99091.12
2018-07-22T21:18:39.472Z,99091.75
2018-07-22T21:21:10.078Z,99090.70
2018-07-22T21:23:40.881Z,99080.84
2018-07-22T21:26:11.596Z,99073.45
2018-07-22T21:28:42.357Z,99074.95
2018-07-22T21:31:12.601Z,99070.87
2018-07-22T21:33:43.025Z,99056.57
2018-07-22T21:38:48.931Z,99053.16
2018-07-22T21:41:19.177Z,99053.64
2018-07-22T21:43:49.449Z,99064.34
2018-07-22T21:46:19.833Z,99072.33
2018-07-22T21:48:50.101Z,99073.27
2018-07-22T21:51:20.382Z,99073.64
2018-07-22T21:53:50.661Z,99058.77
2018-07-22T21:56:21.405Z,99051.88
2018-07-22T21:58:51.673Z,99041.13
2018-07-22T22:01:21.909Z,99042.30
2018-07-22T22:03:51.900Z,99045.98
2018-07-22T22:06:22.194Z,99034.41
2018-07-22T22:08:52.510Z,99038.88
2018-07-22T22:11:22.724Z,99033.37
2018-07-22T22:13:53.056Z,99023.19
2018-07-22T22:16:23.406Z,99027.98
2018-07-22T22:18:54.453Z,99023.41
2018-07-22T22:21:24.734Z,99023.77
2018-07-22T22:23:55.097Z,99012.02
2018-07-22T22:26:25.390Z,98997.97
2018-07-22T22:28:55.742Z,98991.91
2018-07-22T22:31:25.976Z,98997.52
2018-07-22T22:33:56.301Z,99008.86
2018-07-22T22:36:34.510Z,99017.61
2018-07-22T22:39:07.261Z,99016.67
2018-07-22T22:41:37.627Z,99016.17
2018-07-22T22:44:08.605Z,99011.78
2018-07-22T22:46:39.540Z,99015.45
2018-07-22T22:49:10.520Z,99006.26
2018-07-22T22:51:47.641Z,98999.48
2018-07-22T22:54:20.025Z,98997.05
2018-07-22T22:56:50.332Z,98997.05
2018-07-22T22:59:22.245Z,98994.02
2018-07-22T23:01:56.627Z,98987.63
2018-07-22T23:04:27.186Z,98992.38
2018-07-22T23:06:57.395Z,98987.69
2018-07-22T23:09:27.787Z,98987.89
2018-07-22T23:11:58.113Z,98986.90
2018-07-22T23:14:28.495Z,98979.45
2018-07-22T23:16:58.786Z,98974.67
2018-07-22T23:19:29.245Z,98971.34
2018-07-22T23:21:59.720Z,98977.92
2018-07-22T23:24:30.376Z,98980.02
2018-07-22T23:27:00.646Z,98995.58
2018-07-22T23:29:30.876Z,99000.30
2018-07-22T23:32:01.413Z,99012.94
2018-07-22T23:34:31.620Z,99031.67
2018-07-22T23:37:02.217Z,99041.91
2018-07-22T23:39:32.905Z,99043.33
2018-07-22T23:42:03.184Z,99044.64
2018-07-22T23:44:33.617Z,99041.27
2018-07-22T23:47:04.217Z,99052.01
2018-07-22T23:49:34.973Z,99057.16
2018-07-22T23:52:05.261Z,99061.00
2018-07-22T23:54:35.556Z,99054.80
2018-07-22T23:57:06.218Z,99071.97
2018-07-22T23:59:36.530Z,99088.55
